Time;durP1;ratioP1;P1;durP2;ratioP2;P2;SDS_P1;SDS_P2;PMS_P1;PMS_P2;Temp;Humidity;BMP_temperature;BMP_pressure;BME280_temperature;BME280_humidity;BME280_pressure;Samples;Min_cycle;Max_cycle;Signal;HPM_P1;HPM_P2
2023/04/20 00:00:18;;;;;;;0.20;0.20;;;;;;;4.71;88.78;97644.63;5025245;28;20058;-68
2023/04/20 00:02:46;;;;;;;0.20;0.20;;;;;;;4.74;88.82;97639.03;5031460;28;20050;-68
2023/04/20 00:05:13;;;;;;;0.13;0.13;;;;;;;4.80;88.50;97637.56;5026690;28;20053;-68
2023/04/20 00:07:41;;;;;;;0.20;0.20;;;;;;;4.74;88.47;97638.22;5026665;28;20033;-68
2023/04/20 00:10:10;;;;;;;0.43;0.43;;;;;;;4.71;88.64;97636.69;5026779;28;20136;-69
2023/04/20 00:12:37;;;;;;;0.15;0.15;;;;;;;4.71;89.03;97628.78;5031024;28;20088;-69
2023/04/20 00:15:07;;;;;;;0.22;0.22;;;;;;;4.77;88.86;97628.16;5025067;28;20064;-69
2023/04/20 00:17:37;;;;;;;0.20;0.20;;;;;;;4.83;88.76;97624.03;5027670;28;20060;-69
2023/04/20 00:20:06;;;;;;;0.28;0.28;;;;;;;4.86;88.79;97630.84;5016777;28;20099;-69
2023/04/20 00:22:34;;;;;;;0.40;0.40;;;;;;;4.85;89.06;97624.72;5024171;28;20418;-69
2023/04/20 00:25:02;;;;;;;0.20;0.20;;;;;;;4.94;88.56;97622.94;5031968;28;20041;-69
2023/04/20 00:27:30;;;;;;;0.30;0.30;;;;;;;4.94;88.37;97615.84;5030478;28;20029;-69
2023/04/20 00:29:57;;;;;;;0.20;0.20;;;;;;;4.93;88.29;97616.81;5033672;28;20065;-69
2023/04/20 00:32:27;;;;;;;0.10;0.10;;;;;;;4.92;88.74;97612.50;5034723;28;20073;-69
2023/04/20 00:34:55;;;;;;;0.17;0.17;;;;;;;4.96;88.31;97615.69;5027896;28;20054;-70
2023/04/20 00:37:24;;;;;;;0.20;0.20;;;;;;;4.93;88.39;97614.19;5025667;28;20054;-69
2023/04/20 00:39:55;;;;;;;0.20;0.20;;;;;;;4.88;88.86;97615.66;5026966;28;20038;-70
2023/04/20 00:42:24;;;;;;;0.32;0.32;;;;;;;4.93;88.54;97610.69;5024809;28;20038;-69
2023/04/20 00:44:52;;;;;;;0.20;0.20;;;;;;;4.86;88.87;97613.16;5029189;28;20519;-69
2023/04/20 00:47:21;;;;;;;0.10;0.10;;;;;;;4.85;88.84;97611.50;5025312;28;20037;-69
2023/04/20 00:49:50;;;;;;;0.20;0.20;;;;;;;4.86;88.73;97601.75;5026257;28;20046;-69
2023/04/20 00:52:17;;;;;;;0.25;0.25;;;;;;;4.83;88.92;97602.88;5026580;28;20111;-68
2023/04/20 00:54:45;;;;;;;0.35;0.22;;;;;;;4.84;88.98;97603.72;5025780;28;20073;-69
2023/04/20 00:57:14;;;;;;;0.20;0.20;;;;;;;4.72;89.87;97606.63;5027761;28;20123;-69
2023/04/20 00:59:41;;;;;;;0.20;0.20;;;;;;;4.82;89.23;97606.53;5025304;28;20382;-69
2023/04/20 01:02:09;;;;;;;0.20;0.20;;;;;;;4.68;89.85;97604.47;5030117;28;20118;-69
2023/04/20 01:04:36;;;;;;;0.20;0.20;;;;;;;4.71;89.82;97607.63;5019326;28;20045;-69
2023/04/20 01:07:05;;;;;;;0.20;0.20;;;;;;;4.67;89.76;97606.28;5020405;28;20510;-69
2023/04/20 01:09:33;;;;;;;0.20;0.20;;;;;;;4.72;89.67;97606.63;5027008;28;20049;-69
2023/04/20 01:12:01;;;;;;;0.20;0.20;;;;;;;4.63;90.31;97604.13;5026923;28;20049;-69
2023/04/20 01:14:28;;;;;;;0.22;0.22;;;;;;;4.59;90.34;97597.47;5022206;28;20041;-69
2023/04/20 01:16:57;;;;;;;0.50;0.50;;;;;;;4.51;90.82;97598.28;5023383;28;20096;-68
2023/04/20 01:19:25;;;;;;;0.20;0.20;;;;;;;4.62;90.58;97598.00;5030354;28;20066;-68
2023/04/20 01:21:53;;;;;;;0.20;0.20;;;;;;;4.68;90.35;97592.06;5021804;28;20049;-67
2023/04/20 01:24:22;;;;;;;0.30;0.30;;;;;;;4.69;90.35;97591.09;5026055;28;20045;-68
2023/04/20 01:26:51;;;;;;;0.25;0.25;;;;;;;4.76;90.25;97594.78;5022377;28;20043;-68
2023/04/20 01:29:18;;;;;;;0.60;0.60;;;;;;;4.73;89.82;97595.09;5023912;28;20049;-68
2023/04/20 01:31:46;;;;;;;0.20;0.20;;;;;;;4.80;90.13;97595.28;5025804;28;20045;-68
2023/04/20 01:34:14;;;;;;;0.32;0.32;;;;;;;4.80;90.05;97601.38;5023067;28;20037;-68
2023/04/20 01:36:41;;;;;;;0.57;0.57;;;;;;;4.84;89.88;97588.69;5029794;28;20074;-68
2023/04/20 01:39:09;;;;;;;0.20;0.20;;;;;;;4.83;90.09;97586.19;5025954;28;20037;-68
2023/04/20 01:41:38;;;;;;;0.55;0.55;;;;;;;4.91;89.71;97588.88;5021302;28;20041;-68
2023/04/20 01:44:05;;;;;;;0.20;0.20;;;;;;;4.97;89.41;97589.06;5030160;28;20133;-68
2023/04/20 01:46:33;;;;;;;0.20;0.20;;;;;;;4.99;88.99;97587.06;5023581;28;20079;-67
2023/04/20 01:49:00;;;;;;;0.13;0.13;;;;;;;4.94;89.49;97581.47;5029618;28;20056;-67
2023/04/20 01:51:29;;;;;;;0.38;0.38;;;;;;;4.93;89.64;97578.97;5019867;28;20045;-67
2023/04/20 01:53:56;;;;;;;0.30;0.30;;;;;;;4.82;89.88;97581.91;5029968;28;20116;-68
2023/04/20 01:56:24;;;;;;;0.20;0.20;;;;;;;4.83;89.87;97580.91;5029714;28;20104;-68
2023/04/20 01:58:53;;;;;;;0.17;0.17;;;;;;;4.77;89.78;97572.66;5028147;28;20045;-68
2023/04/20 02:01:20;;;;;;;0.30;0.30;;;;;;;4.78;90.17;97574.28;5030241;28;20041;-68
2023/04/20 02:03:48;;;;;;;0.35;0.35;;;;;;;4.84;90.22;97574.63;5027673;28;20054;-68
2023/04/20 02:06:17;;;;;;;0.30;0.30;;;;;;;4.74;90.26;97567.66;5028543;28;20060;-68
2023/04/20 02:08:44;;;;;;;0.30;0.30;;;;;;;4.84;90.22;97572.00;5024925;28;20042;-68
2023/04/20 02:11:12;;;;;;;0.20;0.20;;;;;;;4.86;89.81;97564.75;5017887;28;20042;-66
2023/04/20 02:13:39;;;;;;;0.43;0.43;;;;;;;4.80;89.93;97574.13;5017929;28;20085;-67
2023/04/20 02:16:08;;;;;;;0.20;0.20;;;;;;;4.82;90.16;97568.69;5026094;28;20056;-67
2023/04/20 02:18:36;;;;;;;0.20;0.20;;;;;;;4.70;90.33;97574.25;5021767;28;20033;-67
2023/04/20 02:21:04;;;;;;;0.40;0.40;;;;;;;4.78;90.24;97576.09;5027189;28;20420;-66
2023/04/20 02:23:32;;;;;;;0.40;0.40;;;;;;;4.72;90.38;97587.31;5020319;28;20060;-66
2023/04/20 02:25:59;;;;;;;0.45;0.45;;;;;;;4.68;90.18;97576.22;5022600;28;20045;-66
2023/04/20 02:28:27;;;;;;;0.30;0.30;;;;;;;4.65;90.66;97570.44;5024379;28;20513;-69
2023/04/20 02:30:54;;;;;;;0.43;0.43;;;;;;;4.74;90.27;97575.59;5017570;28;20111;-68
2023/04/20 02:33:23;;;;;;;0.20;0.20;;;;;;;4.78;90.04;97574.28;5022667;28;20045;-69
2023/04/20 02:35:53;;;;;;;0.25;0.25;;;;;;;4.86;89.56;97570.03;5021482;28;20045;-68
2023/04/20 02:38:20;;;;;;;0.20;0.20;;;;;;;4.89;89.32;97573.16;5024278;28;20045;-68
2023/04/20 02:40:48;;;;;;;0.13;0.13;;;;;;;4.89;89.08;97567.88;5021360;28;20045;-68
2023/04/20 02:43:16;;;;;;;0.10;0.10;;;;;;;4.90;88.87;97572.19;5022984;28;20041;-69
2023/04/20 02:45:44;;;;;;;0.10;0.10;;;;;;;4.96;88.46;97565.44;5019491;28;20053;-66
2023/04/20 02:48:12;;;;;;;0.20;0.20;;;;;;;4.98;88.78;97563.47;5026890;28;20516;-67
2023/04/20 02:50:42;;;;;;;0.20;0.20;;;;;;;4.99;88.80;97567.72;5026017;28;20048;-67
2023/04/20 02:53:16;;;;;;;0.10;0.10;;;;;;;5.03;88.63;97561.97;5029486;28;20132;-67
2023/04/20 02:55:48;;;;;;;0.30;0.30;;;;;;;5.04;88.38;97560.16;5023317;28;20115;-67
2023/04/20 02:58:36;;;;;;;0.40;0.40;;;;;;;5.08;88.83;97564.16;5015491;28;20042;-67
2023/04/20 03:01:14;;;;;;;0.50;0.50;;;;;;;5.01;88.76;97571.06;5023733;28;20052;-67
2023/04/20 03:03:43;;;;;;;0.17;0.17;;;;;;;4.94;88.82;97572.69;5017014;28;20075;-67
2023/04/20 03:06:13;;;;;;;0.32;0.32;;;;;;;4.92;88.14;97578.13;5012079;28;20048;-67
2023/04/20 03:08:46;;;;;;;0.45;0.45;;;;;;;4.88;88.41;97574.13;5024005;28;20103;-68
2023/04/20 03:11:38;;;;;;;0.20;0.20;;;;;;;4.77;88.17;97564.72;5019552;28;20045;-68
2023/04/20 03:14:06;;;;;;;0.20;0.20;;;;;;;4.91;87.68;97565.91;5023814;28;20053;-68
2023/04/20 03:16:34;;;;;;;0.20;0.20;;;;;;;4.86;87.34;97565.56;5021866;28;20045;-69
2023/04/20 03:19:01;;;;;;;0.32;0.32;;;;;;;4.93;86.72;97555.16;5020684;28;20041;-69
2023/04/20 03:21:32;;;;;;;0.20;0.20;;;;;;;4.93;86.88;97553.34;5020351;28;20080;-68
2023/04/20 03:24:00;;;;;;;0.32;0.32;;;;;;;4.89;86.36;97549.34;5021584;28;20096;-67
2023/04/20 03:26:28;;;;;;;0.30;0.30;;;;;;;4.82;85.75;97556.28;5024402;28;20044;-69
2023/04/20 03:29:16;;;;;;;0.32;0.32;;;;;;;4.84;85.85;97561.41;5022963;28;20492;-68
2023/04/20 03:31:45;;;;;;;0.15;0.15;;;;;;;4.78;85.87;97558.41;5024266;28;20081;-69
2023/04/20 03:34:12;;;;;;;0.13;0.13;;;;;;;4.76;86.57;97562.22;5029229;28;20489;-68
2023/04/20 03:36:42;;;;;;;0.20;0.20;;;;;;;4.80;85.65;97556.44;5025913;28;20099;-68
2023/04/20 03:39:10;;;;;;;0.10;0.10;;;;;;;4.84;85.38;97559.59;5028252;28;20107;-68
2023/04/20 03:41:37;;;;;;;0.10;0.10;;;;;;;4.80;86.03;97566.19;5030127;28;20050;-68
2023/04/20 03:44:05;;;;;;;0.10;0.10;;;;;;;4.72;85.79;97566.16;5029221;28;20058;-68
2023/04/20 03:46:33;;;;;;;0.22;0.22;;;;;;;4.64;84.33;97559.03;5024267;28;20593;-68
2023/04/20 03:49:02;;;;;;;0.10;0.10;;;;;;;4.55;84.41;97557.34;5033230;28;20046;-69
2023/04/20 03:51:30;;;;;;;0.20;0.20;;;;;;;4.50;83.78;97556.13;5027739;28;20049;-68
2023/04/20 03:53:59;;;;;;;0.10;0.10;;;;;;;4.51;83.22;97555.16;5031474;28;20069;-68
2023/04/20 03:56:27;;;;;;;0.10;0.10;;;;;;;4.49;82.84;97557.13;5027273;28;20038;-69
2023/04/20 03:58:56;;;;;;;0.20;0.20;;;;;;;4.48;82.63;97551.00;5033334;28;20046;-69
2023/04/20 04:01:25;;;;;;;0.10;0.10;;;;;;;4.41;83.00;97548.19;5030878;28;20069;-68
2023/04/20 04:03:53;;;;;;;0.22;0.22;;;;;;;4.34;82.80;97555.09;5035703;28;20041;-69
2023/04/20 04:06:21;;;;;;;0.10;0.10;;;;;;;4.36;83.23;97554.94;5034249;28;20045;-71
2023/04/20 04:08:49;;;;;;;0.20;0.20;;;;;;;4.49;82.74;97557.94;5033627;28;20045;-68
2023/04/20 04:11:18;;;;;;;0.13;0.13;;;;;;;4.50;80.82;97556.97;5022171;28;20042;-68
2023/04/20 04:13:46;;;;;;;0.30;0.30;;;;;;;4.42;80.61;97549.00;5024659;28;20052;-68
2023/04/20 04:16:14;;;;;;;0.32;0.32;;;;;;;4.52;81.13;97557.66;5026576;28;20390;-68
2023/04/20 04:18:43;;;;;;;0.20;0.20;;;;;;;4.55;81.17;97559.16;5026111;28;20592;-69
2023/04/20 04:21:11;;;;;;;0.13;0.13;;;;;;;4.37;81.57;97559.19;5021112;28;20038;-69
2023/04/20 04:23:42;;;;;;;0.22;0.22;;;;;;;4.39;81.45;97560.72;5021957;28;20579;-70
2023/04/20 04:26:32;;;;;;;0.10;0.10;;;;;;;4.38;81.40;97564.34;5023658;28;20664;-69
2023/04/20 04:29:00;;;;;;;0.20;0.20;;;;;;;4.43;81.47;97561.22;5026957;28;20459;-70
2023/04/20 04:31:28;;;;;;;0.38;0.38;;;;;;;4.49;81.82;97554.47;5027511;28;20054;-70
2023/04/20 04:34:02;;;;;;;0.20;0.20;;;;;;;4.56;81.81;97556.34;5025445;28;20075;-69
2023/04/20 04:36:37;;;;;;;0.40;0.40;;;;;;;4.57;81.96;97555.34;5026879;28;20041;-70
2023/04/20 04:39:08;;;;;;;0.10;0.10;;;;;;;4.57;82.12;97550.06;5025517;28;20095;-70
2023/04/20 04:41:37;;;;;;;0.35;0.35;;;;;;;4.57;81.81;97562.47;5031161;28;20453;-70
2023/04/20 04:44:16;;;;;;;0.20;0.20;;;;;;;4.52;81.82;97551.53;5024299;28;20133;-70
2023/04/20 04:46:46;;;;;;;0.25;0.25;;;;;;;4.54;82.14;97550.41;5026757;28;20049;-69
2023/04/20 04:49:14;;;;;;;0.20;0.20;;;;;;;4.50;81.93;97553.50;5022110;28;20125;-69
2023/04/20 04:51:41;;;;;;;0.10;0.10;;;;;;;4.49;81.85;97551.84;5026967;28;20045;-70
2023/04/20 04:54:10;;;;;;;0.35;0.35;;;;;;;4.48;81.72;97552.81;5021414;28;20045;-69
2023/04/20 04:56:38;;;;;;;0.38;0.38;;;;;;;4.48;81.59;97548.38;5027444;28;20215;-69
2023/04/20 04:59:06;;;;;;;0.13;0.13;;;;;;;4.42;81.33;97547.19;5030254;28;20095;-70
2023/04/20 05:01:33;;;;;;;0.10;0.10;;;;;;;4.43;81.58;97551.50;5025232;28;20092;-70
2023/04/20 05:04:01;;;;;;;0.20;0.20;;;;;;;4.46;81.31;97555.66;5032575;28;20049;-70
2023/04/20 05:06:29;;;;;;;0.10;0.10;;;;;;;4.47;80.86;97545.88;5028957;28;20050;-69
2023/04/20 05:08:57;;;;;;;0.22;0.22;;;;;;;4.47;80.46;97562.56;5020843;28;20046;-70
2023/04/20 05:11:24;;;;;;;0.20;0.20;;;;;;;4.45;80.16;97558.44;5019739;28;20072;-70
2023/04/20 05:13:53;;;;;;;0.20;0.20;;;;;;;4.46;80.01;97565.38;5029115;28;20068;-70
2023/04/20 05:16:21;;;;;;;0.22;0.22;;;;;;;4.40;80.28;97572.94;5022942;28;20038;-71
2023/04/20 05:18:48;;;;;;;0.17;0.17;;;;;;;4.51;80.99;97579.78;5029344;28;20049;-70
2023/04/20 05:21:16;;;;;;;0.40;0.40;;;;;;;4.49;80.39;97576.44;5030492;28;20452;-70
2023/04/20 05:23:43;;;;;;;0.22;0.22;;;;;;;4.46;80.86;97579.44;5021034;28;20068;-70
2023/04/20 05:26:11;;;;;;;0.10;0.10;;;;;;;4.52;80.79;97583.25;5023163;28;20041;-70
2023/04/20 05:28:38;;;;;;;0.20;0.20;;;;;;;4.60;81.06;97578.81;5030855;28;20084;-70
2023/04/20 05:31:07;;;;;;;0.15;0.15;;;;;;;4.63;80.53;97572.41;5026036;28;20080;-70
2023/04/20 05:33:35;;;;;;;0.10;0.10;;;;;;;4.60;80.57;97578.81;5030575;28;20087;-70
2023/04/20 05:36:03;;;;;;;0.25;0.25;;;;;;;4.66;80.72;97577.38;5024432;28;20045;-70
2023/04/20 05:38:30;;;;;;;0.20;0.20;;;;;;;4.61;80.53;97583.13;5029598;28;20504;-70
2023/04/20 05:40:58;;;;;;;0.20;0.20;;;;;;;4.69;80.48;97583.16;5026919;28;20049;-70
2023/04/20 05:43:25;;;;;;;0.20;0.20;;;;;;;4.77;79.88;97577.09;5022498;28;20128;-70
2023/04/20 05:45:53;;;;;;;0.32;0.32;;;;;;;4.83;78.78;97583.56;5014754;28;20075;-70
2023/04/20 05:48:22;;;;;;;0.40;0.40;;;;;;;4.86;77.78;97581.44;5020558;28;20120;-70
2023/04/20 05:50:49;;;;;;;0.10;0.10;;;;;;;4.92;76.32;97585.25;5021743;28;20108;-70
2023/04/20 05:53:17;;;;;;;0.10;0.10;;;;;;;4.95;75.60;97588.41;5016017;28;20047;-70
2023/04/20 05:55:45;;;;;;;0.13;0.13;;;;;;;4.99;75.00;97588.91;5019003;28;20042;-70
2023/04/20 05:58:12;;;;;;;0.10;0.10;;;;;;;5.00;74.98;97586.09;5027242;28;20099;-70
2023/04/20 06:00:40;;;;;;;0.25;0.25;;;;;;;5.10;74.94;97585.97;5018629;28;20046;-70
2023/04/20 06:03:07;;;;;;;0.30;0.30;;;;;;;5.15;74.90;97583.69;5024506;28;20134;-70
2023/04/20 06:05:37;;;;;;;0.20;0.20;;;;;;;5.21;75.57;97583.03;5023845;28;20045;-70
2023/04/20 06:08:04;;;;;;;0.17;0.17;;;;;;;5.13;73.20;97583.00;5015521;28;20041;-70
2023/04/20 06:10:33;;;;;;;0.10;0.10;;;;;;;5.32;74.78;97585.38;5023744;28;20045;-70
2023/04/20 06:13:00;;;;;;;0.10;0.10;;;;;;;5.35;73.57;97578.94;5031154;28;20103;-70
2023/04/20 06:15:28;;;;;;;0.10;0.10;;;;;;;5.50;73.92;97587.91;5029816;28;20566;-70
2023/04/20 06:17:55;;;;;;;0.20;0.20;;;;;;;5.59;73.74;97583.44;5028676;28;20053;-70
2023/04/20 06:20:23;;;;;;;0.10;0.10;;;;;;;5.67;72.55;97580.78;5027106;28;20037;-70
2023/04/20 06:22:52;;;;;;;0.52;0.52;;;;;;;5.71;72.64;97568.91;5024152;28;20053;-70
2023/04/20 06:25:20;;;;;;;0.20;0.20;;;;;;;5.70;72.28;97583.13;5028932;28;20042;-70
2023/04/20 06:27:48;;;;;;;0.13;0.13;;;;;;;5.81;73.04;97582.81;5024998;28;20041;-70
2023/04/20 06:30:18;;;;;;;0.22;0.22;;;;;;;5.91;73.12;97572.91;5029316;28;20438;-70
2023/04/20 06:32:46;;;;;;;0.40;0.40;;;;;;;6.04;73.09;97580.31;5033465;28;20083;-70
2023/04/20 06:35:14;;;;;;;0.10;0.10;;;;;;;6.05;71.38;97576.69;5026164;28;20408;-70
2023/04/20 06:37:41;;;;;;;0.10;0.10;;;;;;;6.17;71.88;97583.31;5033053;28;20053;-70
2023/04/20 06:40:10;;;;;;;0.20;0.20;;;;;;;6.27;71.57;97591.91;5031080;28;20065;-71
2023/04/20 06:42:40;;;;;;;0.25;0.25;;;;;;;6.36;70.89;97593.53;5024948;28;20042;-71
2023/04/20 06:45:09;;;;;;;0.10;0.10;;;;;;;6.32;71.48;97586.13;5027469;28;20150;-71
2023/04/20 06:47:36;;;;;;;0.17;0.17;;;;;;;6.33;71.43;97585.13;5025224;28;20514;-71
2023/04/20 06:50:08;;;;;;;0.10;0.10;;;;;;;6.40;71.66;97581.63;5026507;28;20066;-71
2023/04/20 06:52:37;;;;;;;0.32;0.32;;;;;;;6.51;71.57;97589.22;5031878;28;20132;-71
2023/04/20 06:55:05;;;;;;;0.22;0.22;;;;;;;6.58;71.36;97592.00;5022904;28;20038;-70
2023/04/20 06:57:36;;;;;;;0.10;0.10;;;;;;;6.66;71.67;97596.47;5033809;28;20099;-71
2023/04/20 07:00:05;;;;;;;0.20;0.20;;;;;;;6.73;71.58;97590.31;5030953;28;20084;-71
2023/04/20 07:02:41;;;;;;;0.10;0.10;;;;;;;6.84;71.04;97595.28;5026667;28;20091;-70
2023/04/20 07:05:10;;;;;;;0.20;0.20;;;;;;;6.94;71.08;97597.72;5026198;28;20384;-70
2023/04/20 07:07:38;;;;;;;0.32;0.32;;;;;;;6.90;70.95;97593.75;5031554;28;20460;-71
2023/04/20 07:10:06;;;;;;;0.10;0.10;;;;;;;6.92;71.36;97595.22;5034646;28;20049;-70
2023/04/20 07:12:36;;;;;;;0.10;0.10;;;;;;;6.97;71.12;97584.91;5028806;28;20442;-70
2023/04/20 07:15:04;;;;;;;0.10;0.10;;;;;;;6.98;70.50;97591.06;5032562;28;20061;-70
2023/04/20 07:17:32;;;;;;;0.20;0.20;;;;;;;7.02;71.68;97586.25;5032525;28;20460;-70
2023/04/20 07:20:06;;;;;;;0.20;0.20;;;;;;;7.05;70.68;97584.06;5050715;23;20060;-73
2023/04/20 07:22:33;;;;;;;0.52;0.52;;;;;;;7.22;70.90;97580.34;5023301;28;20384;-75
2023/04/20 07:25:01;;;;;;;0.20;0.20;;;;;;;7.28;70.80;97586.75;5018056;28;20050;-72
2023/04/20 07:27:29;;;;;;;0.20;0.20;;;;;;;7.38;70.86;97592.69;5018351;28;20038;-75
2023/04/20 07:29:59;;;;;;;0.20;0.20;;;;;;;7.31;70.22;97589.06;5009948;28;20110;-73
2023/04/20 07:32:27;;;;;;;0.13;0.13;;;;;;;7.26;70.56;97588.78;4996503;28;20034;-73
2023/04/20 07:34:54;;;;;;;0.20;0.20;;;;;;;7.31;70.86;97597.88;5003610;28;20042;-74
2023/04/20 07:37:22;;;;;;;0.10;0.10;;;;;;;7.32;69.94;97598.69;5005088;28;20112;-73
2023/04/20 07:39:53;;;;;;;0.10;0.10;;;;;;;7.41;69.80;97591.50;4991255;28;20050;-73
2023/04/20 07:42:21;;;;;;;0.10;0.10;;;;;;;7.60;69.77;97586.56;4999112;28;20057;-73
2023/04/20 07:44:48;;;;;;;0.25;0.25;;;;;;;7.79;68.96;97584.47;5004186;28;20038;-73
2023/04/20 07:47:17;;;;;;;0.40;0.40;;;;;;;7.73;67.51;97589.47;5003829;28;20104;-73
2023/04/20 07:49:45;;;;;;;0.32;0.32;;;;;;;7.70;67.41;97592.47;5003088;28;20093;-74
2023/04/20 07:52:12;;;;;;;0.28;0.28;;;;;;;7.94;67.09;97595.97;5001931;28;20046;-72
2023/04/20 07:54:44;;;;;;;0.10;0.10;;;;;;;8.08;66.34;97589.88;5002964;28;20460;-73
2023/04/20 07:57:11;;;;;;;0.10;0.10;;;;;;;8.30;66.27;97590.88;4993641;28;20065;-73
2023/04/20 07:59:39;;;;;;;0.10;0.10;;;;;;;8.42;65.98;97584.09;4998702;28;20084;-73
2023/04/20 08:02:07;;;;;;;0.32;0.32;;;;;;;8.61;65.75;97590.75;4997788;28;20050;-73
2023/04/20 08:04:37;;;;;;;0.13;0.13;;;;;;;8.72;64.82;97585.00;4999416;28;20056;-74
2023/04/20 08:07:05;;;;;;;0.30;0.30;;;;;;;8.57;65.17;97592.13;4994764;28;20046;-72
2023/04/20 08:09:33;;;;;;;0.25;0.25;;;;;;;8.47;65.51;97589.72;4992615;28;20496;-73
2023/04/20 08:12:00;;;;;;;0.32;0.32;;;;;;;8.06;66.42;97583.91;5000709;28;20046;-73
2023/04/20 08:14:28;;;;;;;0.10;0.10;;;;;;;8.17;66.62;97587.97;4989698;28;20049;-73
2023/04/20 08:16:55;;;;;;;0.38;0.38;;;;;;;8.28;66.59;97587.56;4987738;28;20443;-73
2023/04/20 08:19:23;;;;;;;0.20;0.20;;;;;;;8.29;66.50;97592.69;4989354;28;20042;-73
2023/04/20 08:21:53;;;;;;;0.20;0.20;;;;;;;8.26;66.41;97590.38;4988948;28;20069;-73
2023/04/20 08:24:20;;;;;;;0.40;0.40;;;;;;;8.25;66.75;97588.72;4996894;28;20100;-73
2023/04/20 08:26:48;;;;;;;0.10;0.10;;;;;;;8.17;66.41;97586.16;4991360;28;20536;-72
2023/04/20 08:29:15;;;;;;;0.13;0.13;;;;;;;8.09;66.91;97586.22;4992016;28;20085;-72
2023/04/20 08:31:43;;;;;;;0.20;0.20;;;;;;;8.11;66.88;97584.19;4997195;28;20493;-72
2023/04/20 08:34:11;;;;;;;0.13;0.13;;;;;;;8.20;67.01;97579.66;4994554;28;20036;-76
2023/04/20 08:36:39;;;;;;;0.13;0.13;;;;;;;8.20;66.83;97580.44;4994068;28;20556;-75
2023/04/20 08:39:10;;;;;;;0.20;0.20;;;;;;;8.20;66.87;97577.00;4991881;28;20501;-76
2023/04/20 08:41:38;;;;;;;0.10;0.10;;;;;;;8.24;67.18;97583.59;4995068;28;20077;-76
2023/04/20 08:44:07;;;;;;;0.32;0.32;;;;;;;8.34;66.64;97577.03;5001017;28;20046;-75
2023/04/20 08:46:34;;;;;;;0.10;0.10;;;;;;;8.30;66.81;97578.41;4997674;28;20398;-74
2023/04/20 08:49:02;;;;;;;0.43;0.43;;;;;;;8.22;66.80;97573.13;4999324;28;20432;-73
2023/04/20 08:51:31;;;;;;;0.13;0.13;;;;;;;8.18;67.58;97574.50;4997385;28;20516;-74
2023/04/20 08:54:04;;;;;;;0.15;0.15;;;;;;;8.12;68.59;97580.53;5004251;28;20078;-75
2023/04/20 08:56:35;;;;;;;0.10;0.10;;;;;;;8.02;68.65;97585.28;4987053;28;20077;-74
2023/04/20 08:59:04;;;;;;;0.22;0.22;;;;;;;7.91;70.48;97573.22;5000098;28;20092;-73
2023/04/20 09:01:34;;;;;;;0.10;0.10;;;;;;;7.90;69.77;97578.72;4993042;28;20097;-72
2023/04/20 09:04:15;;;;;;;0.20;0.20;;;;;;;7.95;70.04;97579.03;5003384;28;20113;-73
2023/04/20 09:06:44;;;;;;;0.30;0.30;;;;;;;7.98;69.65;97579.50;5002254;28;20547;-73
2023/04/20 09:09:14;;;;;;;0.30;0.30;;;;;;;8.00;68.84;97582.78;4992985;28;20054;-73
2023/04/20 09:11:43;;;;;;;0.20;0.20;;;;;;;7.90;69.14;97584.84;4998934;28;20105;-75
2023/04/20 09:14:13;;;;;;;0.25;0.25;;;;;;;7.82;69.50;97589.41;5003678;28;20081;-75
2023/04/20 09:16:49;;;;;;;0.25;0.25;;;;;;;7.93;68.19;97592.47;4996317;28;20058;-74
2023/04/20 09:19:21;;;;;;;0.10;0.10;;;;;;;7.93;66.06;97596.97;4992728;28;20099;-74
2023/04/20 09:21:49;;;;;;;0.15;0.15;;;;;;;7.86;65.55;97583.59;5000700;28;20046;-74
2023/04/20 09:24:18;;;;;;;0.17;0.17;;;;;;;7.91;65.37;97589.16;5000682;28;20089;-74
2023/04/20 09:26:47;;;;;;;0.25;0.25;;;;;;;8.07;64.18;97588.22;4998500;28;20076;-73
2023/04/20 09:29:16;;;;;;;0.22;0.22;;;;;;;8.12;64.02;97583.19;4985944;28;20595;-74
2023/04/20 09:31:44;;;;;;;0.10;0.10;;;;;;;8.10;62.96;97579.88;4999664;28;20069;-74
2023/04/20 09:34:12;;;;;;;0.35;0.35;;;;;;;8.15;64.30;97582.00;4998902;28;20050;-73
2023/04/20 09:36:41;;;;;;;0.20;0.20;;;;;;;8.17;65.71;97580.00;4995294;28;20046;-74
2023/04/20 09:39:10;;;;;;;0.13;0.13;;;;;;;8.19;66.06;97585.97;5001284;28;20085;-74
2023/04/20 09:41:39;;;;;;;0.20;0.20;;;;;;;8.22;66.28;97577.63;4999569;28;20405;-74
2023/04/20 09:44:08;;;;;;;0.22;0.22;;;;;;;8.25;66.17;97579.94;4995589;28;20054;-74
2023/04/20 09:46:38;;;;;;;0.10;0.10;;;;;;;8.22;66.05;97573.13;4992897;28;20038;-73
2023/04/20 09:49:07;;;;;;;0.20;0.20;;;;;;;8.18;65.78;97568.38;4994188;28;20145;-74
2023/04/20 09:51:37;;;;;;;0.10;0.10;;;;;;;8.30;66.20;97572.25;4996304;28;20053;-74
2023/04/20 09:54:06;;;;;;;0.15;0.15;;;;;;;8.25;65.55;97571.94;4991712;28;20214;-74
2023/04/20 09:56:34;;;;;;;0.47;0.47;;;;;;;8.41;65.13;97563.84;4995971;28;20053;-74
2023/04/20 09:59:03;;;;;;;0.10;0.10;;;;;;;8.53;64.96;97569.53;4990887;28;20061;-74
2023/04/20 10:01:34;;;;;;;0.20;0.20;;;;;;;8.56;63.40;97566.53;4995682;28;20460;-72
2023/04/20 10:04:05;;;;;;;0.35;0.35;;;;;;;8.63;63.44;97567.44;4997592;28;20042;-72
2023/04/20 10:06:35;;;;;;;0.22;0.22;;;;;;;8.72;63.26;97561.03;5002338;28;20045;-72
2023/04/20 10:09:04;;;;;;;0.13;0.13;;;;;;;8.83;63.30;97557.88;4991213;28;20125;-73
2023/04/20 10:11:34;;;;;;;0.20;0.20;;;;;;;8.84;62.58;97548.91;4998051;28;20042;-73
2023/04/20 10:14:16;;;;;;;0.10;0.10;;;;;;;8.93;62.19;97545.13;4983354;28;20130;-73
2023/04/20 10:16:46;;;;;;;0.30;0.30;;;;;;;9.00;63.22;97538.06;4993446;28;20126;-74
2023/04/20 10:19:14;;;;;;;0.10;0.10;;;;;;;9.06;63.16;97536.47;4989265;28;20379;-72
2023/04/20 10:21:46;;;;;;;0.10;0.10;;;;;;;9.09;62.28;97536.94;5000021;28;20088;-73
2023/04/20 10:24:14;;;;;;;0.20;0.20;;;;;;;9.06;62.11;97547.97;4996468;28;20118;-73
2023/04/20 10:26:46;;;;;;;0.32;0.32;;;;;;;8.97;61.56;97532.28;5002855;28;20077;-73
2023/04/20 10:29:23;;;;;;;0.30;0.30;;;;;;;9.07;61.87;97530.97;4994807;28;20131;-73
2023/04/20 10:31:52;;;;;;;0.22;0.22;;;;;;;9.13;61.13;97529.41;5004063;28;20080;-73
2023/04/20 10:34:29;;;;;;;0.13;0.13;;;;;;;9.11;60.66;97526.13;4999741;28;20460;-73
2023/04/20 10:37:07;;;;;;;0.30;0.30;;;;;;;9.13;58.93;97513.44;5008499;28;20137;-73
2023/04/20 10:39:36;;;;;;;0.15;0.15;;;;;;;9.12;58.27;97514.44;4998814;28;20069;-73
2023/04/20 10:42:04;;;;;;;0.10;0.10;;;;;;;9.13;57.86;97518.78;4990767;28;20105;-73
2023/04/20 10:44:34;;;;;;;0.15;0.15;;;;;;;8.96;57.52;97512.81;4999192;28;20033;-73
2023/04/20 10:47:02;;;;;;;0.28;0.28;;;;;;;8.96;57.72;97510.16;4987895;28;20498;-72
2023/04/20 10:49:31;;;;;;;0.20;0.20;;;;;;;8.95;57.67;97516.47;5002208;28;20038;-73
2023/04/20 10:51:58;;;;;;;0.10;0.10;;;;;;;8.98;57.39;97500.16;4993921;28;20093;-73
2023/04/20 10:54:27;;;;;;;0.20;0.20;;;;;;;9.01;57.52;97498.97;5000551;28;20042;-72
2023/04/20 10:56:55;;;;;;;0.10;0.10;;;;;;;9.05;57.40;97500.22;4996300;28;20129;-73
2023/04/20 10:59:24;;;;;;;0.30;0.30;;;;;;;9.13;57.03;97508.13;4992469;28;20046;-74
2023/04/20 11:01:52;;;;;;;0.15;0.15;;;;;;;9.10;56.62;97506.66;4996332;28;20097;-75
2023/04/20 11:04:31;;;;;;;0.13;0.13;;;;;;;9.16;56.67;97503.22;4996104;28;20038;-74
2023/04/20 11:07:05;;;;;;;0.10;0.10;;;;;;;9.18;57.26;97500.38;4997590;28;20066;-73
2023/04/20 11:09:33;;;;;;;0.13;0.13;;;;;;;9.25;57.31;97489.78;4987291;28;20041;-73
2023/04/20 11:12:02;;;;;;;0.32;0.32;;;;;;;9.30;57.70;97498.06;4999951;28;20043;-74
2023/04/20 11:14:31;;;;;;;0.30;0.30;;;;;;;9.40;58.02;97493.22;5007718;28;20038;-73
2023/04/20 11:17:01;;;;;;;0.20;0.20;;;;;;;9.48;57.04;97501.09;4998108;28;20103;-73
2023/04/20 11:19:33;;;;;;;0.35;0.35;;;;;;;9.47;57.61;97488.78;5000681;28;20042;-74
2023/04/20 11:22:01;;;;;;;0.22;0.22;;;;;;;9.34;57.22;97496.66;5002581;28;20412;-73
2023/04/20 11:24:30;;;;;;;0.10;0.10;;;;;;;9.34;57.23;97497.50;4985568;28;20046;-73
2023/04/20 11:26:58;;;;;;;0.20;0.20;;;;;;;9.31;57.54;97486.38;4982434;28;20069;-75
2023/04/20 11:29:33;;;;;;;0.10;0.10;;;;;;;9.32;57.68;97490.69;4993690;28;20382;-75
2023/04/20 11:32:03;;;;;;;0.20;0.20;;;;;;;9.31;57.81;97481.88;5008065;28;20101;-73
2023/04/20 11:34:33;;;;;;;0.22;0.22;;;;;;;9.31;57.64;97475.72;5000384;28;20496;-72
2023/04/20 11:37:04;;;;;;;0.10;0.10;;;;;;;9.25;57.99;97487.94;5003733;28;20100;-73
2023/04/20 11:39:32;;;;;;;0.10;0.10;;;;;;;9.20;57.88;97479.72;4999584;28;20050;-75
2023/04/20 11:42:00;;;;;;;0.20;0.20;;;;;;;9.18;58.29;97493.22;4991977;28;20046;-73
2023/04/20 11:44:28;;;;;;;0.35;0.35;;;;;;;9.25;58.24;97485.28;4990379;28;20537;-73
2023/04/20 11:46:56;;;;;;;0.10;0.10;;;;;;;9.21;58.38;97486.69;4990831;28;20050;-75
2023/04/20 11:49:25;;;;;;;0.40;0.40;;;;;;;9.22;58.71;97480.34;4999935;28;20042;-73